aviador You're here:

LDRI Decoded Metar

RIJEKA in CROATIA
Report Time2017-11-23 22:00:00
UTC Time2017-11-23 22:18:25
Flight Rules vfr VFR
Wind160° at 03 kt
W.Decomp.*RWY 14: 2.9 kt HW 0.9 kt RCW
W.Rank160° ranks 19
Current wind is below 160° avg. (7.0)
Visibility9999 m
Phenomena:N/A
Clouds:Scattered 040 Hf
Expected CloudBase > 800 ft AGL from Temp-Dew spread
CeilingNone
Temp11°C (ISA -3)
Dew Point09°C (88% RH)
AAT9.7°C
QNH1021 hPa
Density Alt-246 ft
Elevation279 ft
Report Wrong Elevation
Raw Report
LDRI 232200Z 16003KT 9999 SCT040 11/09 Q1021=

Extra information for LDRI:More info

Metar Taf Metar & Taf Last 4 Metars F.Rules Stats Wind Profile Meteogram Temp Stats Airport Information Weather charts Add Link Nearby VenuesMetar ALERT Operation Metar Decoded Social comments